Etusivu
METAR-TAF:

METAR-TAF

Lentoasemat :

Gamvik, Norja

Leveyspiiri: 71-02N, Pituuspiiri: 027-50E, korkeus merenpinnasta: 1 m

Tämänhetkinen sää

Tämä raportti tehtiin 1 tunti ja 5 minuuttia sitten, kello 14.50 UTC
Tuuli 1 kn pohjoisesta
Lämpötila 12°C
Kosteus 88%
Ilmanpaine 1006 hPa
Näkyvyys 10 km tai enemmän
Hajonneita pilviä 4200 ft:n korkeudessa

METAR: ENMH 231450Z 01001KT 9999 BKN042 12/10 Q1006

Aika: 17:55 (15:55 UTC)


TAF: puuttuu

Säähavainnot ja -ennusteet yli 4000 lentoasemalta (METAR- ja TAF-raportit).

Käytössä olevat sääasemat on merkitty karttaan keltaisilla ja punaisilla pisteillä.

Aseta hiiri pisteen päälle nähdäksesi sääaseman nimen.

Klikkaa sitten nähdäksesi säähavainnot ja -ennusteet.

Kartan vaihtaminen: klikkaa mustalla rastilla varustettuja vihreitä pisteitä, niin voit zoomata sisään; viivalla varustettua vihreää pistettä, niin voit zoomata ulos tai vihreitä nuolia, niin pääset viereisille kartoille.


METAR-TAF: